sensor_id;sensor_type;location;lat;lon;timestamp;P1;durP1;ratioP1;P2;durP2;ratioP2
20621;SDS011;10470;42.670;23.354;2022-12-05T00:02:36;11.90;;;7.47;;
20621;SDS011;10470;42.670;23.354;2022-12-05T00:05:21;14.03;;;7.73;;
20621;SDS011;10470;42.670;23.354;2022-12-05T00:08:07;14.33;;;8.20;;
20621;SDS011;10470;42.670;23.354;2022-12-05T00:10:53;12.13;;;7.43;;
20621;SDS011;10470;42.670;23.354;2022-12-05T00:13:30;12.80;;;7.60;;
20621;SDS011;10470;42.670;23.354;2022-12-05T00:16:17;12.53;;;7.57;;
20621;SDS011;10470;42.670;23.354;2022-12-05T00:19:04;12.67;;;7.13;;
20621;SDS011;10470;42.670;23.354;2022-12-05T00:21:51;13.87;;;7.63;;
20621;SDS011;10470;42.670;23.354;2022-12-05T00:24:36;13.40;;;7.13;;
20621;SDS011;10470;42.670;23.354;2022-12-05T00:27:23;14.10;;;8.20;;
20621;SDS011;10470;42.670;23.354;2022-12-05T00:30:09;13.10;;;7.53;;
20621;SDS011;10470;42.670;23.354;2022-12-05T00:32:54;12.57;;;7.40;;
20621;SDS011;10470;42.670;23.354;2022-12-05T00:35:40;12.67;;;7.67;;
20621;SDS011;10470;42.670;23.354;2022-12-05T00:38:25;13.10;;;7.43;;
20621;SDS011;10470;42.670;23.354;2022-12-05T00:41:11;12.60;;;7.40;;
20621;SDS011;10470;42.670;23.354;2022-12-05T00:44:02;12.37;;;7.57;;
20621;SDS011;10470;42.670;23.354;2022-12-05T00:46:48;14.17;;;7.37;;
20621;SDS011;10470;42.670;23.354;2022-12-05T00:49:26;12.73;;;7.43;;
20621;SDS011;10470;42.670;23.354;2022-12-05T00:52:12;13.87;;;7.40;;
20621;SDS011;10470;42.670;23.354;2022-12-05T00:54:57;12.90;;;7.13;;
20621;SDS011;10470;42.670;23.354;2022-12-05T00:57:35;14.80;;;8.00;;
20621;SDS011;10470;42.670;23.354;2022-12-05T01:00:20;15.67;;;7.73;;
20621;SDS011;10470;42.670;23.354;2022-12-05T01:03:06;14.10;;;7.87;;
20621;SDS011;10470;42.670;23.354;2022-12-05T01:05:51;13.93;;;7.80;;
20621;SDS011;10470;42.670;23.354;2022-12-05T01:08:36;13.73;;;7.37;;
20621;SDS011;10470;42.670;23.354;2022-12-05T01:11:20;15.27;;;8.10;;
20621;SDS011;10470;42.670;23.354;2022-12-05T01:14:07;14.23;;;7.47;;
20621;SDS011;10470;42.670;23.354;2022-12-05T01:16:54;13.57;;;7.20;;
20621;SDS011;10470;42.670;23.354;2022-12-05T01:19:40;13.90;;;7.57;;
20621;SDS011;10470;42.670;23.354;2022-12-05T01:22:25;12.87;;;7.40;;
20621;SDS011;10470;42.670;23.354;2022-12-05T01:25:04;11.87;;;7.73;;
20621;SDS011;10470;42.670;23.354;2022-12-05T01:27:50;13.73;;;7.60;;
20621;SDS011;10470;42.670;23.354;2022-12-05T01:30:37;15.87;;;7.93;;
20621;SDS011;10470;42.670;23.354;2022-12-05T01:33:16;14.37;;;8.07;;
20621;SDS011;10470;42.670;23.354;2022-12-05T01:36:02;15.27;;;7.90;;
20621;SDS011;10470;42.670;23.354;2022-12-05T01:38:48;14.23;;;8.20;;
20621;SDS011;10470;42.670;23.354;2022-12-05T01:41:34;15.47;;;8.70;;
20621;SDS011;10470;42.670;23.354;2022-12-05T01:47:06;15.20;;;8.43;;
20621;SDS011;10470;42.670;23.354;2022-12-05T01:49:52;14.47;;;8.10;;
20621;SDS011;10470;42.670;23.354;2022-12-05T01:52:38;16.83;;;9.00;;
20621;SDS011;10470;42.670;23.354;2022-12-05T01:55:17;15.40;;;8.50;;
20621;SDS011;10470;42.670;23.354;2022-12-05T01:58:04;17.33;;;8.63;;
20621;SDS011;10470;42.670;23.354;2022-12-05T02:00:52;17.30;;;8.90;;
20621;SDS011;10470;42.670;23.354;2022-12-05T02:03:31;18.53;;;8.60;;
20621;SDS011;10470;42.670;23.354;2022-12-05T02:06:17;16.77;;;8.33;;
20621;SDS011;10470;42.670;23.354;2022-12-05T02:09:03;17.87;;;8.77;;
20621;SDS011;10470;42.670;23.354;2022-12-05T02:11:50;16.83;;;9.23;;
20621;SDS011;10470;42.670;23.354;2022-12-05T02:14:58;19.17;;;8.53;;
20621;SDS011;10470;42.670;23.354;2022-12-05T02:23:41;15.10;;;8.30;;
20621;SDS011;10470;42.670;23.354;2022-12-05T02:26:55;19.40;;;8.27;;
20621;SDS011;10470;42.670;23.354;2022-12-05T02:33:06;14.80;;;8.07;;
20621;SDS011;10470;42.670;23.354;2022-12-05T02:36:27;15.93;;;7.83;;
20621;SDS011;10470;42.670;23.354;2022-12-05T02:39:48;13.87;;;7.63;;
20621;SDS011;10470;42.670;23.354;2022-12-05T02:42:37;16.13;;;8.13;;
20621;SDS011;10470;42.670;23.354;2022-12-05T02:45:31;16.20;;;8.57;;
20621;SDS011;10470;42.670;23.354;2022-12-05T02:48:19;15.07;;;7.63;;
20621;SDS011;10470;42.670;23.354;2022-12-05T02:51:02;13.67;;;8.03;;
20621;SDS011;10470;42.670;23.354;2022-12-05T02:53:51;13.50;;;7.27;;
20621;SDS011;10470;42.670;23.354;2022-12-05T02:56:42;13.07;;;7.83;;
20621;SDS011;10470;42.670;23.354;2022-12-05T02:59:30;13.50;;;7.63;;
20621;SDS011;10470;42.670;23.354;2022-12-05T03:02:25;16.13;;;8.67;;
20621;SDS011;10470;42.670;23.354;2022-12-05T03:05:24;15.57;;;8.13;;
20621;SDS011;10470;42.670;23.354;2022-12-05T03:08:11;15.67;;;7.70;;
20621;SDS011;10470;42.670;23.354;2022-12-05T03:10:58;16.07;;;8.43;;
20621;SDS011;10470;42.670;23.354;2022-12-05T03:13:48;16.30;;;8.30;;
20621;SDS011;10470;42.670;23.354;2022-12-05T03:16:32;18.50;;;8.90;;
20621;SDS011;10470;42.670;23.354;2022-12-05T03:19:32;15.90;;;8.73;;
20621;SDS011;10470;42.670;23.354;2022-12-05T03:22:35;18.20;;;9.33;;
20621;SDS011;10470;42.670;23.354;2022-12-05T03:25:22;18.33;;;9.47;;
20621;SDS011;10470;42.670;23.354;2022-12-05T03:28:22;19.33;;;9.30;;
20621;SDS011;10470;42.670;23.354;2022-12-05T03:31:17;16.37;;;9.03;;
20621;SDS011;10470;42.670;23.354;2022-12-05T03:34:06;17.00;;;9.13;;
20621;SDS011;10470;42.670;23.354;2022-12-05T03:36:58;19.40;;;9.43;;
20621;SDS011;10470;42.670;23.354;2022-12-05T03:39:59;19.30;;;9.67;;
20621;SDS011;10470;42.670;23.354;2022-12-05T03:42:53;17.97;;;9.53;;
20621;SDS011;10470;42.670;23.354;2022-12-05T03:45:48;20.93;;;9.50;;
20621;SDS011;10470;42.670;23.354;2022-12-05T03:52:20;19.30;;;9.03;;
20621;SDS011;10470;42.670;23.354;2022-12-05T03:55:08;17.80;;;9.50;;
20621;SDS011;10470;42.670;23.354;2022-12-05T03:57:59;16.30;;;8.37;;
20621;SDS011;10470;42.670;23.354;2022-12-05T04:00:51;17.93;;;9.60;;
20621;SDS011;10470;42.670;23.354;2022-12-05T04:06:39;18.13;;;8.67;;
20621;SDS011;10470;42.670;23.354;2022-12-05T04:09:28;20.40;;;9.07;;
20621;SDS011;10470;42.670;23.354;2022-12-05T04:12:22;15.47;;;8.30;;
20621;SDS011;10470;42.670;23.354;2022-12-05T04:15:17;16.50;;;8.97;;
20621;SDS011;10470;42.670;23.354;2022-12-05T04:18:07;14.90;;;8.17;;
20621;SDS011;10470;42.670;23.354;2022-12-05T04:20:51;16.53;;;8.07;;
20621;SDS011;10470;42.670;23.354;2022-12-05T04:23:58;17.37;;;8.47;;
20621;SDS011;10470;42.670;23.354;2022-12-05T04:27:08;14.97;;;7.57;;
20621;SDS011;10470;42.670;23.354;2022-12-05T04:33:10;18.43;;;8.67;;
20621;SDS011;10470;42.670;23.354;2022-12-05T04:36:09;15.87;;;8.03;;
20621;SDS011;10470;42.670;23.354;2022-12-05T04:39:06;18.10;;;8.60;;
20621;SDS011;10470;42.670;23.354;2022-12-05T04:41:57;14.83;;;7.83;;
20621;SDS011;10470;42.670;23.354;2022-12-05T04:44:47;16.07;;;8.60;;
20621;SDS011;10470;42.670;23.354;2022-12-05T04:47:41;14.70;;;7.70;;
20621;SDS011;10470;42.670;23.354;2022-12-05T04:50:32;15.90;;;8.60;;
20621;SDS011;10470;42.670;23.354;2022-12-05T04:53:20;15.77;;;7.77;;
20621;SDS011;10470;42.670;23.354;2022-12-05T04:56:08;15.23;;;8.53;;
20621;SDS011;10470;42.670;23.354;2022-12-05T04:58:52;14.00;;;7.90;;
20621;SDS011;10470;42.670;23.354;2022-12-05T05:01:36;17.30;;;8.03;;
20621;SDS011;10470;42.670;23.354;2022-12-05T05:04:28;15.70;;;7.90;;
20621;SDS011;10470;42.670;23.354;2022-12-05T05:07:19;15.37;;;8.40;;
20621;SDS011;10470;42.670;23.354;2022-12-05T05:10:01;18.73;;;10.23;;
20621;SDS011;10470;42.670;23.354;2022-12-05T05:12:40;17.03;;;8.67;;
20621;SDS011;10470;42.670;23.354;2022-12-05T05:15:26;14.90;;;7.83;;
20621;SDS011;10470;42.670;23.354;2022-12-05T05:18:11;15.43;;;8.73;;
20621;SDS011;10470;42.670;23.354;2022-12-05T05:20:57;16.00;;;8.57;;
20621;SDS011;10470;42.670;23.354;2022-12-05T05:23:42;14.30;;;7.67;;
20621;SDS011;10470;42.670;23.354;2022-12-05T05:26:28;14.10;;;7.20;;
20621;SDS011;10470;42.670;23.354;2022-12-05T05:29:11;15.67;;;7.77;;
20621;SDS011;10470;42.670;23.354;2022-12-05T05:31:57;16.37;;;8.13;;
20621;SDS011;10470;42.670;23.354;2022-12-05T05:34:42;18.50;;;9.53;;
20621;SDS011;10470;42.670;23.354;2022-12-05T05:37:28;16.57;;;8.13;;
20621;SDS011;10470;42.670;23.354;2022-12-05T05:40:13;13.27;;;7.50;;
20621;SDS011;10470;42.670;23.354;2022-12-05T05:42:59;17.17;;;8.30;;
20621;SDS011;10470;42.670;23.354;2022-12-05T05:45:41;14.27;;;8.00;;
20621;SDS011;10470;42.670;23.354;2022-12-05T05:48:21;17.03;;;8.27;;
20621;SDS011;10470;42.670;23.354;2022-12-05T05:51:02;20.40;;;8.37;;
20621;SDS011;10470;42.670;23.354;2022-12-05T05:53:42;16.90;;;9.40;;
20621;SDS011;10470;42.670;23.354;2022-12-05T05:56:22;15.40;;;8.27;;
20621;SDS011;10470;42.670;23.354;2022-12-05T05:59:03;16.37;;;8.47;;
20621;SDS011;10470;42.670;23.354;2022-12-05T06:01:43;21.20;;;8.60;;
20621;SDS011;10470;42.670;23.354;2022-12-05T06:04:24;17.30;;;9.07;;
20621;SDS011;10470;42.670;23.354;2022-12-05T06:07:05;14.37;;;8.37;;
20621;SDS011;10470;42.670;23.354;2022-12-05T06:09:46;19.50;;;8.73;;
20621;SDS011;10470;42.670;23.354;2022-12-05T06:12:27;19.03;;;9.20;;
20621;SDS011;10470;42.670;23.354;2022-12-05T06:15:08;16.43;;;8.53;;
20621;SDS011;10470;42.670;23.354;2022-12-05T06:17:48;19.10;;;9.23;;
20621;SDS011;10470;42.670;23.354;2022-12-05T06:20:30;18.37;;;9.67;;
20621;SDS011;10470;42.670;23.354;2022-12-05T06:23:11;17.77;;;9.87;;
20621;SDS011;10470;42.670;23.354;2022-12-05T06:25:53;21.40;;;10.50;;
20621;SDS011;10470;42.670;23.354;2022-12-05T06:28:34;18.53;;;9.17;;
20621;SDS011;10470;42.670;23.354;2022-12-05T06:31:20;16.70;;;9.07;;
20621;SDS011;10470;42.670;23.354;2022-12-05T06:34:07;16.43;;;8.97;;
20621;SDS011;10470;42.670;23.354;2022-12-05T06:36:53;18.23;;;9.37;;
20621;SDS011;10470;42.670;23.354;2022-12-05T06:39:38;15.57;;;9.07;;
20621;SDS011;10470;42.670;23.354;2022-12-05T06:42:24;17.03;;;9.53;;
20621;SDS011;10470;42.670;23.354;2022-12-05T06:45:09;15.80;;;8.80;;
20621;SDS011;10470;42.670;23.354;2022-12-05T06:47:55;18.80;;;9.30;;
20621;SDS011;10470;42.670;23.354;2022-12-05T06:50:46;15.20;;;8.70;;
20621;SDS011;10470;42.670;23.354;2022-12-05T06:53:35;15.53;;;9.07;;
20621;SDS011;10470;42.670;23.354;2022-12-05T06:56:04;18.77;;;9.47;;
20621;SDS011;10470;42.670;23.354;2022-12-05T06:58:41;15.13;;;8.70;;
20621;SDS011;10470;42.670;23.354;2022-12-05T07:01:28;15.43;;;9.27;;
20621;SDS011;10470;42.670;23.354;2022-12-05T07:04:24;17.87;;;9.37;;
20621;SDS011;10470;42.670;23.354;2022-12-05T07:06:59;18.27;;;10.27;;
20621;SDS011;10470;42.670;23.354;2022-12-05T07:09:39;19.37;;;10.47;;
20621;SDS011;10470;42.670;23.354;2022-12-05T07:12:21;15.93;;;9.33;;
20621;SDS011;10470;42.670;23.354;2022-12-05T07:15:07;18.03;;;9.90;;
20621;SDS011;10470;42.670;23.354;2022-12-05T07:17:52;14.43;;;8.73;;
20621;SDS011;10470;42.670;23.354;2022-12-05T07:20:37;17.17;;;8.93;;
20621;SDS011;10470;42.670;23.354;2022-12-05T07:23:23;17.03;;;9.73;;
20621;SDS011;10470;42.670;23.354;2022-12-05T07:26:09;17.57;;;9.43;;
20621;SDS011;10470;42.670;23.354;2022-12-05T07:28:57;18.23;;;9.10;;
20621;SDS011;10470;42.670;23.354;2022-12-05T07:31:42;15.30;;;8.47;;
20621;SDS011;10470;42.670;23.354;2022-12-05T07:34:28;16.53;;;9.27;;
20621;SDS011;10470;42.670;23.354;2022-12-05T07:37:10;15.23;;;8.43;;
20621;SDS011;10470;42.670;23.354;2022-12-05T07:39:58;15.27;;;8.50;;
20621;SDS011;10470;42.670;23.354;2022-12-05T07:42:43;14.57;;;8.53;;
20621;SDS011;10470;42.670;23.354;2022-12-05T07:45:33;15.93;;;9.33;;
20621;SDS011;10470;42.670;23.354;2022-12-05T07:48:19;15.03;;;8.77;;
20621;SDS011;10470;42.670;23.354;2022-12-05T07:51:06;15.13;;;9.10;;
20621;SDS011;10470;42.670;23.354;2022-12-05T07:53:52;15.53;;;8.93;;
20621;SDS011;10470;42.670;23.354;2022-12-05T07:56:38;16.90;;;8.57;;
20621;SDS011;10470;42.670;23.354;2022-12-05T07:59:23;22.83;;;11.27;;
20621;SDS011;10470;42.670;23.354;2022-12-05T08:02:09;19.77;;;10.73;;
20621;SDS011;10470;42.670;23.354;2022-12-05T08:04:52;16.97;;;8.83;;
20621;SDS011;10470;42.670;23.354;2022-12-05T08:07:37;24.47;;;11.73;;
20621;SDS011;10470;42.670;23.354;2022-12-05T08:10:22;21.37;;;10.23;;
20621;SDS011;10470;42.670;23.354;2022-12-05T08:13:08;19.23;;;11.60;;
20621;SDS011;10470;42.670;23.354;2022-12-05T08:15:54;18.20;;;10.50;;
20621;SDS011;10470;42.670;23.354;2022-12-05T08:18:40;15.53;;;8.80;;
20621;SDS011;10470;42.670;23.354;2022-12-05T08:21:26;15.23;;;9.23;;
20621;SDS011;10470;42.670;23.354;2022-12-05T08:24:13;11.30;;;7.23;;
20621;SDS011;10470;42.670;23.354;2022-12-05T08:26:58;13.40;;;8.00;;
20621;SDS011;10470;42.670;23.354;2022-12-05T08:29:44;12.87;;;7.57;;
20621;SDS011;10470;42.670;23.354;2022-12-05T08:32:29;13.17;;;7.97;;
20621;SDS011;10470;42.670;23.354;2022-12-05T08:35:15;12.40;;;7.30;;
20621;SDS011;10470;42.670;23.354;2022-12-05T08:37:51;11.77;;;6.90;;
20621;SDS011;10470;42.670;23.354;2022-12-05T08:40:37;13.97;;;7.80;;
20621;SDS011;10470;42.670;23.354;2022-12-05T08:43:22;14.07;;;7.60;;
20621;SDS011;10470;42.670;23.354;2022-12-05T08:46:08;13.07;;;7.47;;
20621;SDS011;10470;42.670;23.354;2022-12-05T08:48:54;15.43;;;8.00;;
20621;SDS011;10470;42.670;23.354;2022-12-05T08:51:40;15.63;;;8.43;;
20621;SDS011;10470;42.670;23.354;2022-12-05T08:54:26;11.43;;;7.37;;
20621;SDS011;10470;42.670;23.354;2022-12-05T08:57:11;9.57;;;6.77;;
20621;SDS011;10470;42.670;23.354;2022-12-05T08:59:57;11.17;;;6.87;;
20621;SDS011;10470;42.670;23.354;2022-12-05T09:02:42;10.27;;;6.60;;
20621;SDS011;10470;42.670;23.354;2022-12-05T09:05:28;9.60;;;6.23;;
20621;SDS011;10470;42.670;23.354;2022-12-05T09:08:13;9.70;;;5.80;;
20621;SDS011;10470;42.670;23.354;2022-12-05T09:10:59;7.67;;;5.30;;
20621;SDS011;10470;42.670;23.354;2022-12-05T09:13:44;6.87;;;5.10;;
20621;SDS011;10470;42.670;23.354;2022-12-05T09:16:32;6.40;;;4.70;;
20621;SDS011;10470;42.670;23.354;2022-12-05T09:19:19;6.10;;;4.57;;
20621;SDS011;10470;42.670;23.354;2022-12-05T09:22:04;5.50;;;4.17;;
20621;SDS011;10470;42.670;23.354;2022-12-05T09:24:50;7.83;;;4.83;;
20621;SDS011;10470;42.670;23.354;2022-12-05T09:27:35;8.10;;;5.60;;
20621;SDS011;10470;42.670;23.354;2022-12-05T09:30:21;7.57;;;4.53;;
20621;SDS011;10470;42.670;23.354;2022-12-05T09:33:05;8.67;;;5.10;;
20621;SDS011;10470;42.670;23.354;2022-12-05T09:35:51;7.60;;;5.33;;
20621;SDS011;10470;42.670;23.354;2022-12-05T09:38:36;8.00;;;5.40;;
20621;SDS011;10470;42.670;23.354;2022-12-05T09:47:59;8.50;;;5.13;;
20621;SDS011;10470;42.670;23.354;2022-12-05T09:51:00;7.70;;;5.27;;
20621;SDS011;10470;42.670;23.354;2022-12-05T09:53:47;11.13;;;5.77;;
20621;SDS011;10470;42.670;23.354;2022-12-05T09:56:28;8.90;;;5.83;;
20621;SDS011;10470;42.670;23.354;2022-12-05T09:59:15;8.27;;;6.10;;
20621;SDS011;10470;42.670;23.354;2022-12-05T10:05:03;12.33;;;7.20;;
20621;SDS011;10470;42.670;23.354;2022-12-05T10:11:10;9.63;;;6.60;;
20621;SDS011;10470;42.670;23.354;2022-12-05T10:14:16;8.50;;;6.07;;
20621;SDS011;10470;42.670;23.354;2022-12-05T10:20:16;10.33;;;6.40;;
20621;SDS011;10470;42.670;23.354;2022-12-05T10:23:05;11.83;;;6.90;;
20621;SDS011;10470;42.670;23.354;2022-12-05T10:25:58;10.70;;;6.27;;
20621;SDS011;10470;42.670;23.354;2022-12-05T10:32:17;8.90;;;6.10;;
20621;SDS011;10470;42.670;23.354;2022-12-05T10:35:14;11.67;;;6.70;;
20621;SDS011;10470;42.670;23.354;2022-12-05T10:38:05;9.97;;;6.73;;
20621;SDS011;10470;42.670;23.354;2022-12-05T10:40:57;9.43;;;6.13;;
20621;SDS011;10470;42.670;23.354;2022-12-05T10:43:46;7.93;;;6.00;;
20621;SDS011;10470;42.670;23.354;2022-12-05T10:46:33;9.77;;;6.87;;
20621;SDS011;10470;42.670;23.354;2022-12-05T10:49:18;12.80;;;6.47;;
20621;SDS011;10470;42.670;23.354;2022-12-05T10:52:05;10.63;;;7.10;;
20621;SDS011;10470;42.670;23.354;2022-12-05T10:55:03;13.17;;;7.00;;
20621;SDS011;10470;42.670;23.354;2022-12-05T10:57:49;13.20;;;6.90;;
20621;SDS011;10470;42.670;23.354;2022-12-05T11:00:36;8.17;;;5.80;;
20621;SDS011;10470;42.670;23.354;2022-12-05T11:09:12;8.27;;;6.37;;
20621;SDS011;10470;42.670;23.354;2022-12-05T11:15:10;11.43;;;6.27;;
20621;SDS011;10470;42.670;23.354;2022-12-05T11:18:25;11.80;;;7.07;;
20621;SDS011;10470;42.670;23.354;2022-12-05T11:21:13;10.13;;;7.13;;
20621;SDS011;10470;42.670;23.354;2022-12-05T11:24:15;11.60;;;7.37;;
20621;SDS011;10470;42.670;23.354;2022-12-05T11:27:30;12.10;;;7.70;;
20621;SDS011;10470;42.670;23.354;2022-12-05T11:30:17;12.13;;;7.40;;
20621;SDS011;10470;42.670;23.354;2022-12-05T11:33:37;11.17;;;7.83;;
20621;SDS011;10470;42.670;23.354;2022-12-05T11:36:21;13.30;;;7.40;;
20621;SDS011;10470;42.670;23.354;2022-12-05T11:39:09;11.93;;;7.53;;
20621;SDS011;10470;42.670;23.354;2022-12-05T11:45:00;10.23;;;7.10;;
20621;SDS011;10470;42.670;23.354;2022-12-05T12:10:02;13.43;;;7.97;;
20621;SDS011;10470;42.670;23.354;2022-12-05T12:40:55;18.40;;;10.80;;
20621;SDS011;10470;42.670;23.354;2022-12-05T12:50:14;19.63;;;10.60;;
20621;SDS011;10470;42.670;23.354;2022-12-05T12:53:10;22.37;;;12.40;;
20621;SDS011;10470;42.670;23.354;2022-12-05T12:59:13;23.10;;;13.37;;
20621;SDS011;10470;42.670;23.354;2022-12-05T13:02:03;21.20;;;12.00;;
20621;SDS011;10470;42.670;23.354;2022-12-05T13:05:02;19.53;;;11.00;;
20621;SDS011;10470;42.670;23.354;2022-12-05T13:08:13;23.93;;;12.20;;
20621;SDS011;10470;42.670;23.354;2022-12-05T13:11:01;20.80;;;11.20;;
20621;SDS011;10470;42.670;23.354;2022-12-05T13:13:51;22.10;;;12.50;;
20621;SDS011;10470;42.670;23.354;2022-12-05T13:16:41;24.40;;;12.30;;
20621;SDS011;10470;42.670;23.354;2022-12-05T13:19:30;24.83;;;13.00;;
20621;SDS011;10470;42.670;23.354;2022-12-05T13:22:29;24.50;;;11.50;;
20621;SDS011;10470;42.670;23.354;2022-12-05T13:25:15;19.40;;;11.77;;
20621;SDS011;10470;42.670;23.354;2022-12-05T13:28:04;22.53;;;11.03;;
20621;SDS011;10470;42.670;23.354;2022-12-05T13:31:00;19.30;;;11.13;;
20621;SDS011;10470;42.670;23.354;2022-12-05T13:36:37;20.80;;;11.60;;
20621;SDS011;10470;42.670;23.354;2022-12-05T13:39:49;20.73;;;11.27;;
20621;SDS011;10470;42.670;23.354;2022-12-05T13:43:02;20.70;;;10.93;;
20621;SDS011;10470;42.670;23.354;2022-12-05T13:48:43;19.57;;;10.40;;
20621;SDS011;10470;42.670;23.354;2022-12-05T13:51:34;22.87;;;11.17;;
20621;SDS011;10470;42.670;23.354;2022-12-05T13:54:23;19.47;;;11.37;;
20621;SDS011;10470;42.670;23.354;2022-12-05T14:00:23;28.73;;;14.83;;
20621;SDS011;10470;42.670;23.354;2022-12-05T14:09:26;22.30;;;12.20;;
20621;SDS011;10470;42.670;23.354;2022-12-05T14:14:59;22.07;;;12.10;;
20621;SDS011;10470;42.670;23.354;2022-12-05T14:17:45;23.13;;;12.93;;
20621;SDS011;10470;42.670;23.354;2022-12-05T14:20:47;21.77;;;12.20;;
20621;SDS011;10470;42.670;23.354;2022-12-05T14:23:57;27.47;;;11.77;;
20621;SDS011;10470;42.670;23.354;2022-12-05T14:33:26;21.90;;;11.13;;
20621;SDS011;10470;42.670;23.354;2022-12-05T14:36:13;20.43;;;11.63;;
20621;SDS011;10470;42.670;23.354;2022-12-05T14:39:00;26.53;;;11.87;;
20621;SDS011;10470;42.670;23.354;2022-12-05T14:45:30;24.00;;;11.93;;
20621;SDS011;10470;42.670;23.354;2022-12-05T14:54:02;25.70;;;13.97;;
20621;SDS011;10470;42.670;23.354;2022-12-05T14:56:51;21.87;;;12.13;;
20621;SDS011;10470;42.670;23.354;2022-12-05T14:59:52;22.97;;;12.47;;
20621;SDS011;10470;42.670;23.354;2022-12-05T15:02:42;26.60;;;13.20;;
20621;SDS011;10470;42.670;23.354;2022-12-05T15:05:31;22.83;;;12.63;;
20621;SDS011;10470;42.670;23.354;2022-12-05T15:08:18;23.07;;;13.03;;
20621;SDS011;10470;42.670;23.354;2022-12-05T15:11:05;23.93;;;12.70;;
20621;SDS011;10470;42.670;23.354;2022-12-05T15:13:50;22.37;;;12.10;;
20621;SDS011;10470;42.670;23.354;2022-12-05T15:16:25;27.03;;;13.67;;
20621;SDS011;10470;42.670;23.354;2022-12-05T15:19:16;28.13;;;14.47;;
20621;SDS011;10470;42.670;23.354;2022-12-05T15:22:26;24.83;;;13.40;;
20621;SDS011;10470;42.670;23.354;2022-12-05T15:25:14;28.27;;;14.87;;
20621;SDS011;10470;42.670;23.354;2022-12-05T15:27:55;25.60;;;13.63;;
20621;SDS011;10470;42.670;23.354;2022-12-05T15:30:43;25.37;;;13.80;;
20621;SDS011;10470;42.670;23.354;2022-12-05T15:33:48;23.07;;;13.30;;
20621;SDS011;10470;42.670;23.354;2022-12-05T15:36:37;25.07;;;12.97;;
20621;SDS011;10470;42.670;23.354;2022-12-05T15:39:23;25.20;;;12.87;;
20621;SDS011;10470;42.670;23.354;2022-12-05T15:41:56;24.87;;;13.00;;
20621;SDS011;10470;42.670;23.354;2022-12-05T15:44:42;27.00;;;14.33;;
20621;SDS011;10470;42.670;23.354;2022-12-05T15:47:27;26.50;;;14.13;;
20621;SDS011;10470;42.670;23.354;2022-12-05T15:53:03;25.43;;;14.40;;
20621;SDS011;10470;42.670;23.354;2022-12-05T15:56:10;25.97;;;13.20;;
20621;SDS011;10470;42.670;23.354;2022-12-05T16:02:10;29.30;;;14.77;;
20621;SDS011;10470;42.670;23.354;2022-12-05T16:05:00;28.93;;;14.70;;
20621;SDS011;10470;42.670;23.354;2022-12-05T16:07:46;25.03;;;13.87;;
20621;SDS011;10470;42.670;23.354;2022-12-05T16:10:34;24.93;;;13.60;;
20621;SDS011;10470;42.670;23.354;2022-12-05T16:13:21;26.80;;;13.93;;
20621;SDS011;10470;42.670;23.354;2022-12-05T16:16:13;26.00;;;14.23;;
20621;SDS011;10470;42.670;23.354;2022-12-05T16:19:14;26.07;;;14.27;;
20621;SDS011;10470;42.670;23.354;2022-12-05T16:25:01;25.07;;;14.00;;
20621;SDS011;10470;42.670;23.354;2022-12-05T16:27:59;26.77;;;14.17;;
20621;SDS011;10470;42.670;23.354;2022-12-05T16:30:58;26.73;;;14.67;;
20621;SDS011;10470;42.670;23.354;2022-12-05T16:33:46;26.27;;;14.07;;
20621;SDS011;10470;42.670;23.354;2022-12-05T16:36:19;26.03;;;14.73;;
20621;SDS011;10470;42.670;23.354;2022-12-05T16:39:05;24.60;;;14.57;;
20621;SDS011;10470;42.670;23.354;2022-12-05T16:41:57;27.47;;;14.83;;
20621;SDS011;10470;42.670;23.354;2022-12-05T16:47:47;24.30;;;13.53;;
20621;SDS011;10470;42.670;23.354;2022-12-05T16:50:32;23.37;;;12.97;;
20621;SDS011;10470;42.670;23.354;2022-12-05T16:53:26;23.50;;;13.63;;
20621;SDS011;10470;42.670;23.354;2022-12-05T16:56:10;24.40;;;12.73;;
20621;SDS011;10470;42.670;23.354;2022-12-05T16:59:03;25.53;;;13.60;;
20621;SDS011;10470;42.670;23.354;2022-12-05T17:01:50;23.97;;;13.40;;
20621;SDS011;10470;42.670;23.354;2022-12-05T17:04:36;23.10;;;13.07;;
20621;SDS011;10470;42.670;23.354;2022-12-05T17:07:22;23.87;;;14.03;;
20621;SDS011;10470;42.670;23.354;2022-12-05T17:10:08;26.23;;;15.33;;
20621;SDS011;10470;42.670;23.354;2022-12-05T17:12:53;25.67;;;14.10;;
20621;SDS011;10470;42.670;23.354;2022-12-05T17:15:40;23.80;;;14.17;;
20621;SDS011;10470;42.670;23.354;2022-12-05T17:18:26;24.87;;;13.90;;
20621;SDS011;10470;42.670;23.354;2022-12-05T17:21:15;26.47;;;15.10;;
20621;SDS011;10470;42.670;23.354;2022-12-05T17:24:03;24.80;;;14.67;;
20621;SDS011;10470;42.670;23.354;2022-12-05T17:26:44;25.30;;;15.13;;
20621;SDS011;10470;42.670;23.354;2022-12-05T17:29:31;27.80;;;15.67;;
20621;SDS011;10470;42.670;23.354;2022-12-05T17:32:16;27.77;;;15.07;;
20621;SDS011;10470;42.670;23.354;2022-12-05T17:35:09;26.83;;;14.97;;
20621;SDS011;10470;42.670;23.354;2022-12-05T17:37:59;24.43;;;14.17;;
20621;SDS011;10470;42.670;23.354;2022-12-05T17:40:44;26.50;;;14.53;;
20621;SDS011;10470;42.670;23.354;2022-12-05T17:43:31;26.47;;;14.07;;
20621;SDS011;10470;42.670;23.354;2022-12-05T17:46:17;27.03;;;14.93;;
20621;SDS011;10470;42.670;23.354;2022-12-05T17:49:05;23.13;;;13.10;;
20621;SDS011;10470;42.670;23.354;2022-12-05T17:51:50;24.60;;;14.30;;
20621;SDS011;10470;42.670;23.354;2022-12-05T17:54:38;27.73;;;14.77;;
20621;SDS011;10470;42.670;23.354;2022-12-05T17:57:22;26.00;;;14.50;;
20621;SDS011;10470;42.670;23.354;2022-12-05T18:00:08;26.47;;;14.93;;
20621;SDS011;10470;42.670;23.354;2022-12-05T18:02:53;26.90;;;15.03;;
20621;SDS011;10470;42.670;23.354;2022-12-05T18:05:39;23.47;;;13.30;;
20621;SDS011;10470;42.670;23.354;2022-12-05T18:08:16;24.10;;;13.77;;
20621;SDS011;10470;42.670;23.354;2022-12-05T18:11:01;26.10;;;14.53;;
20621;SDS011;10470;42.670;23.354;2022-12-05T18:13:47;26.13;;;14.60;;
20621;SDS011;10470;42.670;23.354;2022-12-05T18:16:32;26.27;;;14.80;;
20621;SDS011;10470;42.670;23.354;2022-12-05T18:19:18;25.73;;;13.87;;
20621;SDS011;10470;42.670;23.354;2022-12-05T18:22:04;28.13;;;15.33;;
20621;SDS011;10470;42.670;23.354;2022-12-05T18:24:50;25.00;;;14.10;;
20621;SDS011;10470;42.670;23.354;2022-12-05T18:27:36;28.33;;;15.80;;
20621;SDS011;10470;42.670;23.354;2022-12-05T18:30:10;30.10;;;15.97;;
20621;SDS011;10470;42.670;23.354;2022-12-05T18:32:56;26.90;;;14.77;;
20621;SDS011;10470;42.670;23.354;2022-12-05T18:35:42;24.97;;;14.07;;
20621;SDS011;10470;42.670;23.354;2022-12-05T18:38:30;22.77;;;13.87;;
20621;SDS011;10470;42.670;23.354;2022-12-05T18:41:15;25.60;;;13.33;;
20621;SDS011;10470;42.670;23.354;2022-12-05T18:44:00;25.87;;;14.40;;
20621;SDS011;10470;42.670;23.354;2022-12-05T18:46:46;22.53;;;12.53;;
20621;SDS011;10470;42.670;23.354;2022-12-05T18:49:31;21.13;;;12.70;;
20621;SDS011;10470;42.670;23.354;2022-12-05T18:52:05;22.27;;;13.33;;
20621;SDS011;10470;42.670;23.354;2022-12-05T18:54:51;23.63;;;13.07;;
20621;SDS011;10470;42.670;23.354;2022-12-05T18:57:37;23.70;;;13.77;;
20621;SDS011;10470;42.670;23.354;2022-12-05T19:00:22;21.03;;;11.93;;